Brookline, New Hampshire
Current Conditions -  °F | °C
As of 8:51 AM on Wednesday 22 Oct 2014 (Local Time) from KASH Reporting Station
Haze Haze  
Wind Chill: 51°   Ceiling: 900
Heat Index: 51°   Visibility: 4mi
Dew Point: 49°   Wind: 10mph
Humidity: 93%   Direction: 20°NNE
Pressure: 30.07"   Gusts: 16mph
Location:  42.73°N, 71.66°W
Report Text: KASH 221251Z 02009G14KT 4SM BR BKN009 OVC012 11/09 A3007 RMK AO2 T01050094 RAE12 P0000 SLP435 $
Loading
Personal Weather Stations






























Interactive Weather Map
Tropical Storm Tracking
New forecast layout! Learn more

10-Day Weather Forecast

Advertisements
Track Severe Weather on mobile